createdAt,value
2019-03-26T00:00:18.816Z,101761.54
2019-03-26T00:02:51.232Z,101769.59
2019-03-26T00:05:23.376Z,101774.14
2019-03-26T00:07:55.488Z,101774.10
2019-03-26T00:10:27.562Z,101778.83
2019-03-26T00:13:00.073Z,101772.33
2019-03-26T00:15:33.137Z,101767.05
2019-03-26T00:18:05.218Z,101761.69
2019-03-26T00:20:37.649Z,101762.05
2019-03-26T00:23:10.142Z,101758.94
2019-03-26T00:25:42.265Z,101766.52
2019-03-26T00:28:14.699Z,101765.30
2019-03-26T00:30:46.856Z,101765.22
2019-03-26T00:33:18.968Z,101775.86
2019-03-26T00:35:51.511Z,101781.32
2019-03-26T00:38:23.636Z,101777.27
2019-03-26T00:40:56.164Z,101781.20
2019-03-26T00:43:28.740Z,101785.45
2019-03-26T00:46:00.853Z,101781.57
2019-03-26T00:48:33.378Z,101775.92
2019-03-26T00:51:06.385Z,101775.47
2019-03-26T00:53:38.959Z,101774.51
2019-03-26T00:56:11.914Z,101774.62
2019-03-26T00:58:44.052Z,101780.26
2019-03-26T01:01:16.271Z,101785.81
2019-03-26T01:03:48.743Z,101788.33
2019-03-26T01:06:20.868Z,101787.11
2019-03-26T01:08:53.163Z,101795.33
2019-03-26T01:11:25.291Z,101798.84
2019-03-26T01:13:57.468Z,101795.09
2019-03-26T01:16:29.616Z,101793.80
2019-03-26T01:19:01.714Z,101790.84
2019-03-26T01:21:33.776Z,101807.04
2019-03-26T01:24:05.876Z,101802.97
2019-03-26T01:26:38.498Z,101800.68
2019-03-26T01:29:10.642Z,101795.98
2019-03-26T01:31:43.497Z,101801.48
2019-03-26T01:34:15.799Z,101795.23
2019-03-26T01:36:47.858Z,101798.44
2019-03-26T01:39:20.315Z,101794.26
2019-03-26T01:41:53.599Z,101799.13
2019-03-26T01:44:26.396Z,101791.44
2019-03-26T01:46:58.829Z,101794.68
2019-03-26T01:49:31.575Z,101787.87
2019-03-26T01:52:03.673Z,101781.84
2019-03-26T01:54:37.011Z,101792.33
2019-03-26T01:57:09.080Z,101793.39
2019-03-26T01:59:41.372Z,101794.76
2019-03-26T02:02:13.616Z,101805.12
2019-03-26T02:04:58.838Z,101813.47
2019-03-26T02:07:20.138Z,101812.58
2019-03-26T02:09:52.321Z,101807.81
2019-03-26T02:12:24.822Z,101804.84
2019-03-26T02:14:56.950Z,101796.26
2019-03-26T02:17:29.278Z,101802.73
2019-03-26T02:20:01.798Z,101805.43
2019-03-26T02:22:34.375Z,101801.20
2019-03-26T02:25:06.391Z,101805.09
2019-03-26T02:27:38.635Z,101804.81
2019-03-26T02:30:11.158Z,101804.34
2019-03-26T02:32:43.328Z,101804.44
2019-03-26T02:35:18.080Z,101802.90
2019-03-26T02:37:50.000Z,101799.59
2019-03-26T02:40:22.176Z,101802.19
2019-03-26T02:42:54.314Z,101801.81
2019-03-26T02:45:26.791Z,101797.61
2019-03-26T02:47:58.919Z,101798.59
2019-03-26T02:50:31.000Z,101794.84
2019-03-26T02:53:03.907Z,101798.31
2019-03-26T02:55:36.023Z,101798.31
2019-03-26T02:58:08.126Z,101802.68
2019-03-26T03:00:40.220Z,101793.61
2019-03-26T03:03:12.636Z,101804.55
2019-03-26T03:05:44.746Z,101794.69
2019-03-26T03:08:17.237Z,101802.19
2019-03-26T03:10:49.360Z,101803.80
2019-03-26T03:13:22.068Z,101790.42
2019-03-26T03:15:54.283Z,101796.12
2019-03-26T03:18:26.441Z,101797.95
2019-03-26T03:20:58.537Z,101789.38
2019-03-26T03:23:30.950Z,101792.89
2019-03-26T03:26:03.736Z,101798.17
2019-03-26T03:28:35.837Z,101798.14
2019-03-26T03:31:08.358Z,101796.94
2019-03-26T03:33:40.943Z,101801.28
2019-03-26T03:36:13.148Z,101800.83
2019-03-26T03:38:45.422Z,101800.45
2019-03-26T03:41:17.893Z,101797.45
2019-03-26T03:43:50.281Z,101795.74
2019-03-26T03:46:23.012Z,101795.36
2019-03-26T03:48:57.082Z,101797.45
2019-03-26T03:51:33.442Z,101802.63
2019-03-26T03:54:06.925Z,101807.83
2019-03-26T03:56:43.225Z,101801.75
2019-03-26T03:59:15.407Z,101807.03
2019-03-26T04:01:47.469Z,101804.84
2019-03-26T04:04:20.076Z,101800.95
2019-03-26T04:06:52.223Z,101794.95
2019-03-26T04:09:24.585Z,101791.56
2019-03-26T04:11:57.034Z,101801.94
2019-03-26T04:14:29.783Z,101796.72
2019-03-26T04:17:01.949Z,101798.91
2019-03-26T04:19:34.053Z,101797.55
2019-03-26T04:22:06.647Z,101790.27
2019-03-26T04:24:40.112Z,101801.50
2019-03-26T04:27:12.561Z,101800.14
2019-03-26T04:29:44.628Z,101797.48
2019-03-26T04:32:16.716Z,101800.93
2019-03-26T04:34:49.096Z,101806.11
2019-03-26T04:37:22.814Z,101806.14
2019-03-26T04:39:54.894Z,101797.45
2019-03-26T04:42:27.714Z,101798.84
2019-03-26T04:45:00.955Z,101804.44
2019-03-26T04:47:33.406Z,101807.03
2019-03-26T04:50:06.407Z,101803.64
2019-03-26T04:52:38.879Z,101807.98
2019-03-26T04:55:10.970Z,101815.80
2019-03-26T04:57:43.091Z,101822.75
2019-03-26T05:00:15.594Z,101821.05
2019-03-26T05:02:48.068Z,101829.58
2019-03-26T05:05:20.797Z,101825.69
2019-03-26T05:07:52.892Z,101827.78
2019-03-26T05:10:25.346Z,101833.84
2019-03-26T05:12:58.106Z,101840.91
2019-03-26T05:15:30.190Z,101846.50
2019-03-26T05:18:02.594Z,101846.81
2019-03-26T05:20:34.717Z,101844.60
2019-03-26T05:23:06.773Z,101838.56
2019-03-26T05:25:39.251Z,101837.27
2019-03-26T05:28:11.803Z,101837.42
2019-03-26T05:30:44.421Z,101834.27
2019-03-26T05:33:16.498Z,101835.55
2019-03-26T05:35:51.511Z,101833.37
2019-03-26T05:38:23.016Z,101830.27
2019-03-26T05:40:55.143Z,101820.79
2019-03-26T05:43:27.297Z,101806.52
2019-03-26T05:45:59.564Z,101810.89
2019-03-26T05:48:31.632Z,101809.50
2019-03-26T05:51:04.148Z,101813.48
2019-03-26T05:53:36.560Z,101825.66
2019-03-26T05:56:08.706Z,101822.91
2019-03-26T05:58:40.889Z,101827.78
2019-03-26T06:01:12.981Z,101831.83
2019-03-26T06:03:45.089Z,101832.33
2019-03-26T06:06:17.305Z,101827.15
2019-03-26T06:08:49.779Z,101821.96
2019-03-26T06:11:21.874Z,101817.66
2019-03-26T06:13:54.176Z,101818.58
2019-03-26T06:16:37.919Z,101818.58
2019-03-26T06:19:00.848Z,101817.38
2019-03-26T06:21:33.397Z,101821.83
2019-03-26T06:24:05.753Z,101821.83
2019-03-26T06:26:38.177Z,101825.34
2019-03-26T06:29:10.299Z,101828.25
2019-03-26T06:31:43.583Z,101820.54
2019-03-26T06:34:16.268Z,101822.34
2019-03-26T06:36:48.398Z,101829.33
2019-03-26T06:39:21.151Z,101832.88
2019-03-26T06:41:54.028Z,101825.91
2019-03-26T06:44:26.114Z,101828.98
2019-03-26T06:46:58.269Z,101817.49
2019-03-26T06:49:31.279Z,101820.09
2019-03-26T06:52:03.406Z,101817.20
2019-03-26T06:54:35.467Z,101813.46
2019-03-26T06:57:07.847Z,101817.95
2019-03-26T06:59:40.708Z,101816.89
2019-03-26T07:02:13.537Z,101818.37
2019-03-26T07:04:52.011Z,101820.73
2019-03-26T07:07:31.396Z,101827.69
2019-03-26T07:09:58.722Z,101835.27
2019-03-26T07:12:31.085Z,101839.40
2019-03-26T07:15:03.257Z,101833.50
2019-03-26T07:17:36.062Z,101827.64
2019-03-26T07:20:09.405Z,101835.19
2019-03-26T07:22:41.880Z,101829.67
2019-03-26T07:25:14.499Z,101835.86
2019-03-26T07:27:48.011Z,101827.76
2019-03-26T07:30:49.586Z,101840.58
2019-03-26T07:33:21.663Z,101847.72
2019-03-26T07:35:54.132Z,101858.75
2019-03-26T07:38:26.630Z,101857.11
2019-03-26T07:40:59.411Z,101854.98
2019-03-26T07:43:31.960Z,101854.59
2019-03-26T07:46:04.545Z,101843.79
2019-03-26T07:48:36.637Z,101849.42
2019-03-26T07:51:08.750Z,101850.39
2019-03-26T07:53:41.074Z,101859.05
2019-03-26T07:56:13.297Z,101859.65
2019-03-26T07:58:45.391Z,101862.86
2019-03-26T08:01:17.952Z,101853.78
2019-03-26T08:03:50.600Z,101866.09
2019-03-26T08:06:23.397Z,101851.05
2019-03-26T08:08:56.351Z,101856.95
2019-03-26T08:11:29.013Z,101847.02
2019-03-26T08:14:01.615Z,101852.34
2019-03-26T08:16:34.260Z,101837.70
2019-03-26T08:19:06.837Z,101838.72
2019-03-26T08:21:39.294Z,101831.75
2019-03-26T08:24:11.534Z,101843.09
2019-03-26T08:26:44.006Z,101845.37
2019-03-26T08:29:16.164Z,101849.88
2019-03-26T08:31:48.323Z,101851.31
2019-03-26T08:34:20.435Z,101841.91
2019-03-26T08:36:54.173Z,101841.09
2019-03-26T08:39:26.652Z,101832.12
2019-03-26T08:41:59.516Z,101827.88
2019-03-26T08:44:31.666Z,101825.86
2019-03-26T08:47:04.263Z,101820.94
2019-03-26T08:49:37.159Z,101807.97
2019-03-26T08:52:09.571Z,101810.01
2019-03-26T08:54:41.982Z,101813.02
2019-03-26T08:57:14.292Z,101810.22
2019-03-26T08:59:54.240Z,101803.76
2019-03-26T09:02:26.467Z,101802.72
2019-03-26T09:04:59.075Z,101809.70
2019-03-26T09:07:31.579Z,101811.19
2019-03-26T09:10:04.050Z,101809.03
2019-03-26T09:12:39.401Z,101811.77
2019-03-26T09:15:14.483Z,101815.15
2019-03-26T09:17:45.861Z,101813.66
2019-03-26T09:20:18.276Z,101808.30
2019-03-26T09:22:50.773Z,101806.58
2019-03-26T09:25:24.225Z,101804.03
2019-03-26T09:27:57.318Z,101799.18
2019-03-26T09:30:30.770Z,101788.33
2019-03-26T09:33:03.256Z,101792.67
2019-03-26T09:35:35.878Z,101793.90
2019-03-26T09:38:08.282Z,101778.20
2019-03-26T09:40:40.443Z,101767.23
2019-03-26T09:43:13.861Z,101774.44
2019-03-26T09:45:46.672Z,101773.23
2019-03-26T09:48:21.804Z,101763.47
2019-03-26T09:50:54.032Z,101751.89
2019-03-26T09:53:26.514Z,101750.30
2019-03-26T09:55:59.211Z,101755.22
2019-03-26T09:58:32.233Z,101754.09
2019-03-26T10:01:05.070Z,101750.16
2019-03-26T10:03:38.426Z,101751.91
2019-03-26T10:06:22.802Z,101746.16
2019-03-26T10:08:52.608Z,101750.66
2019-03-26T10:11:22.019Z,101750.71
2019-03-26T10:13:54.165Z,101750.77
2019-03-26T10:16:27.308Z,101769.00
2019-03-26T10:19:24.766Z,101769.73
2019-03-26T10:22:15.089Z,101781.28
2019-03-26T10:25:11.520Z,101772.73
2019-03-26T10:28:00.826Z,101763.91
2019-03-26T10:31:08.782Z,101751.83
2019-03-26T10:34:01.005Z,101756.63
2019-03-26T10:37:04.798Z,101752.80
2019-03-26T10:39:54.085Z,101745.89
2019-03-26T10:42:43.718Z,101748.81
2019-03-26T10:45:27.650Z,101754.95
2019-03-26T10:48:14.875Z,101764.86
2019-03-26T10:51:00.493Z,101759.77
2019-03-26T10:53:44.161Z,101752.33
2019-03-26T10:56:34.400Z,101754.23
2019-03-26T10:59:05.372Z,101745.80
2019-03-26T11:08:21.955Z,101757.05
2019-03-26T11:10:54.578Z,101753.44
2019-03-26T11:13:27.356Z,101751.07
2019-03-26T11:15:59.840Z,101762.30
2019-03-26T11:18:31.954Z,101768.02
2019-03-26T11:21:23.778Z,101767.88
2019-03-26T11:23:57.246Z,101764.55
2019-03-26T11:26:29.343Z,101760.11
2019-03-26T11:29:01.470Z,101751.84
2019-03-26T11:31:33.978Z,101751.16
2019-03-26T11:34:06.231Z,101731.91
2019-03-26T11:36:38.300Z,101732.16
2019-03-26T11:39:11.690Z,101716.50
2019-03-26T11:41:44.088Z,101722.22
2019-03-26T11:44:16.211Z,101725.17
2019-03-26T11:46:48.619Z,101726.74
2019-03-26T11:49:20.985Z,101734.98
2019-03-26T11:51:53.082Z,101732.06
2019-03-26T11:54:25.468Z,101721.55
2019-03-26T11:56:58.337Z,101717.30
2019-03-26T11:59:30.774Z,101705.61
2019-03-26T12:02:04.550Z,101699.28
2019-03-26T12:04:36.918Z,101698.84
2019-03-26T12:07:09.537Z,101695.70
2019-03-26T12:09:46.560Z,101704.21
2019-03-26T12:12:16.987Z,101718.88
2019-03-26T12:14:49.878Z,101726.99
2019-03-26T12:17:23.565Z,101742.69
2019-03-26T12:19:56.151Z,101735.64
2019-03-26T12:22:31.321Z,101741.16
2019-03-26T12:25:02.700Z,101735.44
2019-03-26T12:27:36.472Z,101743.78
2019-03-26T12:30:09.432Z,101748.23
2019-03-26T12:32:41.797Z,101743.89
2019-03-26T12:35:28.681Z,101741.59
2019-03-26T12:38:00.869Z,101745.05
2019-03-26T12:40:32.941Z,101742.90
2019-03-26T12:43:05.142Z,101738.75
2019-03-26T12:45:37.187Z,101737.94
2019-03-26T12:48:10.015Z,101737.83
2019-03-26T12:50:42.252Z,101751.30
2019-03-26T12:53:15.667Z,101750.80
2019-03-26T12:55:48.203Z,101755.47
2019-03-26T12:58:30.974Z,101759.80
2019-03-26T13:00:54.424Z,101753.48
2019-03-26T13:03:26.433Z,101756.98
2019-03-26T13:05:58.934Z,101746.97
2019-03-26T13:08:30.998Z,101736.11
2019-03-26T13:11:03.272Z,101732.23
2019-03-26T13:13:35.370Z,101739.05
2019-03-26T13:16:07.597Z,101734.75
2019-03-26T13:18:39.978Z,101741.32
2019-03-26T13:21:12.096Z,101733.41
2019-03-26T13:23:45.486Z,101737.36
2019-03-26T13:26:17.803Z,101738.63
2019-03-26T13:28:50.611Z,101732.91
2019-03-26T13:31:22.985Z,101742.53
2019-03-26T13:33:55.047Z,101739.46
2019-03-26T13:36:27.517Z,101735.00
2019-03-26T13:38:59.617Z,101740.69
2019-03-26T13:41:32.031Z,101737.14
2019-03-26T13:44:04.124Z,101738.91
2019-03-26T13:46:36.505Z,101739.76
2019-03-26T13:49:08.598Z,101740.17
2019-03-26T13:51:41.141Z,101739.33
2019-03-26T13:54:13.654Z,101735.41
2019-03-26T13:56:50.284Z,101739.00
2019-03-26T13:59:33.948Z,101733.73
2019-03-26T14:02:21.251Z,101739.84
2019-03-26T14:05:06.564Z,101737.65
2019-03-26T14:07:39.172Z,101732.44
2019-03-26T14:10:19.400Z,101745.89
2019-03-26T14:13:19.790Z,101745.89
2019-03-26T14:15:57.715Z,101735.09
2019-03-26T14:18:42.707Z,101738.45
2019-03-26T14:21:18.383Z,101742.83
2019-03-26T14:24:00.145Z,101743.23
2019-03-26T14:26:46.338Z,101744.04
2019-03-26T14:29:27.961Z,101749.20
2019-03-26T14:32:07.890Z,101758.70
2019-03-26T14:34:51.796Z,101763.88
2019-03-26T14:37:51.191Z,101762.48
2019-03-26T14:40:27.318Z,101758.63
2019-03-26T14:43:21.589Z,101757.64
2019-03-26T14:46:04.641Z,101750.37
2019-03-26T14:48:52.631Z,101749.02
2019-03-26T14:51:24.350Z,101757.73
2019-03-26T14:53:59.413Z,101756.84
2019-03-26T14:56:31.509Z,101758.61
2019-03-26T14:59:03.936Z,101766.39
2019-03-26T15:01:36.431Z,101767.75
2019-03-26T15:04:08.547Z,101769.05
2019-03-26T15:06:40.662Z,101774.27
2019-03-26T15:09:13.044Z,101768.63
2019-03-26T15:11:45.566Z,101775.52
2019-03-26T15:14:17.774Z,101782.50
2019-03-26T15:16:50.452Z,101782.45
2019-03-26T15:19:23.281Z,101783.20
2019-03-26T15:21:56.084Z,101795.66
2019-03-26T15:24:28.968Z,101806.09
2019-03-26T15:27:01.593Z,101802.50
2019-03-26T15:29:33.956Z,101799.87
2019-03-26T15:32:06.269Z,101807.66
2019-03-26T15:34:38.857Z,101798.95
2019-03-26T15:37:11.005Z,101792.44
2019-03-26T15:39:43.073Z,101787.62
2019-03-26T15:42:15.234Z,101792.05
2019-03-26T15:44:47.314Z,101782.83
2019-03-26T15:47:19.438Z,101791.48
2019-03-26T15:49:51.539Z,101800.51
2019-03-26T15:52:23.635Z,101797.89
2019-03-26T15:54:56.033Z,101801.69
2019-03-26T15:57:28.140Z,101802.52
2019-03-26T16:00:00.973Z,101803.31
2019-03-26T16:02:34.110Z,101796.84
2019-03-26T16:05:06.768Z,101795.00
2019-03-26T16:07:38.888Z,101807.67
2019-03-26T16:10:12.549Z,101803.82
2019-03-26T16:12:44.717Z,101803.83
2019-03-26T16:15:16.924Z,101803.83
2019-03-26T16:17:49.026Z,101808.62
2019-03-26T16:20:21.131Z,101810.87
2019-03-26T16:22:53.224Z,101803.06
2019-03-26T16:25:25.417Z,101811.77
2019-03-26T16:27:57.876Z,101807.43
2019-03-26T16:30:30.939Z,101804.05
2019-03-26T16:33:03.957Z,101806.28
2019-03-26T16:35:36.400Z,101809.31
2019-03-26T16:38:08.835Z,101811.14
2019-03-26T16:40:40.888Z,101811.56
2019-03-26T16:43:13.049Z,101816.71
2019-03-26T16:45:45.093Z,101811.52
2019-03-26T16:48:17.202Z,101822.41
2019-03-26T16:50:49.823Z,101824.97
2019-03-26T16:53:22.260Z,101823.65
2019-03-26T16:55:54.419Z,101817.55
2019-03-26T16:58:26.842Z,101816.19
2019-03-26T17:00:59.333Z,101807.85
2019-03-26T17:03:32.937Z,101807.91
2019-03-26T17:06:05.167Z,101818.74
2019-03-26T17:08:37.238Z,101824.80
2019-03-26T17:11:09.368Z,101824.73
2019-03-26T17:13:41.709Z,101833.48
2019-03-26T17:16:13.805Z,101832.60
2019-03-26T17:18:45.894Z,101834.64
2019-03-26T17:21:18.488Z,101840.26
2019-03-26T17:23:50.819Z,101839.36
2019-03-26T17:26:23.622Z,101850.09
2019-03-26T17:28:55.744Z,101843.63
2019-03-26T17:31:28.265Z,101849.55
2019-03-26T17:34:00.563Z,101850.02
2019-03-26T17:36:33.021Z,101848.24
2019-03-26T17:39:07.817Z,101844.11
2019-03-26T17:41:40.172Z,101844.52
2019-03-26T17:44:13.077Z,101848.42
2019-03-26T17:46:45.163Z,101849.20
2019-03-26T17:49:18.093Z,101856.11
2019-03-26T17:51:50.178Z,101864.83
2019-03-26T17:54:22.634Z,101872.58
2019-03-26T17:56:55.014Z,101871.68
2019-03-26T17:59:27.094Z,101871.63
2019-03-26T18:01:59.182Z,101880.80
2019-03-26T18:04:32.683Z,101870.68
2019-03-26T18:07:05.563Z,101878.13
2019-03-26T18:09:37.824Z,101873.73
2019-03-26T18:12:10.544Z,101882.03
2019-03-26T18:14:43.084Z,101880.61
2019-03-26T18:17:15.484Z,101888.89
2019-03-26T18:19:47.949Z,101885.41
2019-03-26T18:22:20.553Z,101891.03
2019-03-26T18:24:52.578Z,101894.05
2019-03-26T18:27:25.468Z,101888.02
2019-03-26T18:29:57.584Z,101885.88
2019-03-26T18:32:29.642Z,101901.87
2019-03-26T18:35:02.063Z,101899.78
2019-03-26T18:37:34.154Z,101902.38
2019-03-26T18:40:07.232Z,101909.80
2019-03-26T18:42:44.188Z,101905.41
2019-03-26T18:45:13.209Z,101909.31
2019-03-26T18:47:45.567Z,101908.89
2019-03-26T18:50:18.497Z,101910.15
2019-03-26T18:52:50.593Z,101909.73
2019-03-26T18:55:25.227Z,101910.09
2019-03-26T18:57:57.261Z,101910.22
2019-03-26T19:00:40.418Z,101917.13
2019-03-26T19:03:13.721Z,101918.84
2019-03-26T19:05:45.803Z,101929.68
2019-03-26T19:08:18.515Z,101932.22
2019-03-26T19:10:50.571Z,101939.20
2019-03-26T19:13:22.667Z,101941.41
2019-03-26T19:15:55.220Z,101933.98
2019-03-26T19:18:27.644Z,101943.61
2019-03-26T19:21:02.383Z,101937.98
2019-03-26T19:23:33.500Z,101936.73
2019-03-26T19:26:06.445Z,101941.41
2019-03-26T19:28:38.585Z,101947.96
2019-03-26T19:31:10.665Z,101950.59
2019-03-26T19:33:42.764Z,101941.00
2019-03-26T19:36:15.481Z,101946.68
2019-03-26T19:38:47.622Z,101957.08
2019-03-26T19:41:19.698Z,101952.29
2019-03-26T19:43:51.790Z,101945.36
2019-03-26T19:46:23.900Z,101950.05
2019-03-26T19:48:56.309Z,101950.52
2019-03-26T19:51:28.715Z,101950.05
2019-03-26T19:54:01.215Z,101959.56
2019-03-26T19:56:33.649Z,101959.56
2019-03-26T19:59:05.712Z,101970.52
2019-03-26T20:01:38.139Z,101976.09
2019-03-26T20:04:10.800Z,101980.07
2019-03-26T20:06:43.163Z,101971.30
2019-03-26T20:09:15.263Z,101976.51
2019-03-26T20:11:47.348Z,101976.61
2019-03-26T20:14:20.058Z,101984.42
2019-03-26T20:16:52.766Z,101987.45
2019-03-26T20:19:25.463Z,101990.83
2019-03-26T20:21:57.539Z,101992.12
2019-03-26T20:24:30.645Z,101990.39
2019-03-26T20:27:02.961Z,102000.91
2019-03-26T20:29:35.055Z,101997.00
2019-03-26T20:32:07.501Z,101994.84
2019-03-26T20:34:39.601Z,101999.95
2019-03-26T20:37:11.805Z,101997.34
2019-03-26T20:39:43.969Z,102004.30
2019-03-26T20:42:16.470Z,102006.05
2019-03-26T20:44:48.562Z,102009.94
2019-03-26T20:47:20.730Z,102006.02
2019-03-26T20:49:53.154Z,102005.61
2019-03-26T20:52:25.234Z,102014.65
2019-03-26T20:54:57.755Z,102020.77
2019-03-26T20:57:31.136Z,102016.73
2019-03-26T21:00:03.231Z,102016.78
2019-03-26T21:02:35.641Z,102026.19
2019-03-26T21:05:09.127Z,102018.02
2019-03-26T21:07:41.204Z,102031.03
2019-03-26T21:10:13.910Z,102032.83
2019-03-26T21:12:46.005Z,102040.15
2019-03-26T21:15:18.467Z,102042.36
2019-03-26T21:17:50.642Z,102046.27
2019-03-26T21:20:22.677Z,102040.22
2019-03-26T21:22:55.692Z,102037.63
2019-03-26T21:25:28.687Z,102038.84
2019-03-26T21:28:01.244Z,102034.00
2019-03-26T21:30:33.364Z,102037.91
2019-03-26T21:33:05.676Z,102031.79
2019-03-26T21:35:37.801Z,102042.20
2019-03-26T21:38:10.001Z,102038.80
2019-03-26T21:40:42.105Z,102036.53
2019-03-26T21:43:14.220Z,102042.20
2019-03-26T21:45:46.213Z,102041.24
2019-03-26T21:48:18.402Z,102040.44
2019-03-26T21:50:51.146Z,102044.73
2019-03-26T21:53:24.149Z,102041.30
2019-03-26T21:56:06.320Z,102050.36
2019-03-26T21:58:31.407Z,102058.07
2019-03-26T22:01:03.480Z,102066.16
2019-03-26T22:03:36.247Z,102065.80
2019-03-26T22:06:08.621Z,102070.95
2019-03-26T22:08:40.804Z,102066.99
2019-03-26T22:11:13.332Z,102069.11
2019-03-26T22:13:45.420Z,102068.19
2019-03-26T22:16:18.120Z,102075.52
2019-03-26T22:18:50.210Z,102081.08
2019-03-26T22:21:22.269Z,102076.26
2019-03-26T22:23:55.742Z,102089.75
2019-03-26T22:26:28.658Z,102094.42
2019-03-26T22:29:01.334Z,102091.81
2019-03-26T22:31:35.197Z,102086.69
2019-03-26T22:34:07.673Z,102087.89
2019-03-26T22:36:39.738Z,102090.97
2019-03-26T22:39:11.872Z,102091.41
2019-03-26T22:41:44.029Z,102090.58
2019-03-26T22:44:16.140Z,102092.77
2019-03-26T22:46:48.188Z,102093.98
2019-03-26T22:49:20.889Z,102095.23
2019-03-26T22:51:53.006Z,102101.30
2019-03-26T22:54:25.478Z,102105.47
2019-03-26T22:56:57.597Z,102099.36
2019-03-26T22:59:29.663Z,102097.50
2019-03-26T23:02:02.090Z,102106.11
2019-03-26T23:04:35.482Z,102094.34
2019-03-26T23:07:07.735Z,102105.14
2019-03-26T23:09:39.807Z,102096.03
2019-03-26T23:12:12.258Z,102103.58
2019-03-26T23:14:45.570Z,102104.37
2019-03-26T23:17:18.132Z,102116.49
2019-03-26T23:19:50.215Z,102112.66
2019-03-26T23:22:22.300Z,102121.14
2019-03-26T23:24:55.142Z,102114.99
2019-03-26T23:27:27.269Z,102119.81
2019-03-26T23:30:00.333Z,102118.98
2019-03-26T23:32:33.146Z,102112.83
2019-03-26T23:35:05.533Z,102110.64
2019-03-26T23:40:14.702Z,102109.81
2019-03-26T23:42:46.759Z,102112.57
2019-03-26T23:45:19.343Z,102102.49
2019-03-26T23:47:51.824Z,102110.17
2019-03-26T23:50:24.187Z,102114.81
2019-03-26T23:52:56.995Z,102109.20
2019-03-26T23:55:29.718Z,102109.44
2019-03-26T23:58:01.925Z,102113.66
